createdAt,value
2017-11-03T00:01:33.392Z,58.20
2017-11-03T00:04:01.004Z,61.90
2017-11-03T00:06:28.508Z,58.53
2017-11-03T00:08:56.120Z,53.27
2017-11-03T00:11:23.658Z,57.97
2017-11-03T00:13:51.199Z,59.57
2017-11-03T00:16:18.869Z,57.60
2017-11-03T00:18:47.344Z,59.30
2017-11-03T00:21:14.873Z,62.13
2017-11-03T00:23:42.499Z,60.87
2017-11-03T00:26:10.029Z,58.97
2017-11-03T00:28:37.599Z,56.73
2017-11-03T00:31:05.926Z,65.73
2017-11-03T00:33:33.491Z,63.87
2017-11-03T00:36:01.075Z,68.23
2017-11-03T00:38:28.641Z,70.53
2017-11-03T00:40:56.308Z,64.03
2017-11-03T00:43:23.902Z,63.83
2017-11-03T00:45:51.458Z,63.23
2017-11-03T00:48:20.065Z,62.50
2017-11-03T00:50:47.723Z,67.77
2017-11-03T00:53:15.289Z,88.83
2017-11-03T00:55:42.824Z,70.47
2017-11-03T00:58:10.391Z,73.23
2017-11-03T01:00:38.907Z,62.37
2017-11-03T01:03:06.541Z,65.17
2017-11-03T01:05:34.092Z,65.80
2017-11-03T01:08:01.693Z,78.27
2017-11-03T01:10:29.250Z,68.07
2017-11-03T01:12:56.830Z,74.03
2017-11-03T01:15:24.422Z,69.17
2017-11-03T01:17:51.947Z,65.40
2017-11-03T01:20:19.500Z,65.10
2017-11-03T01:22:47.831Z,70.33
2017-11-03T01:25:15.368Z,72.83
2017-11-03T01:27:43.041Z,67.77
2017-11-03T01:30:10.623Z,72.20
2017-11-03T01:32:38.264Z,71.83
2017-11-03T01:35:05.819Z,71.37
2017-11-03T01:37:33.571Z,71.40
2017-11-03T01:40:01.134Z,75.43
2017-11-03T01:42:28.676Z,78.97
2017-11-03T01:44:56.289Z,76.47
2017-11-03T01:47:23.856Z,64.30
2017-11-03T01:49:51.381Z,69.90
2017-11-03T01:52:18.984Z,61.23
2017-11-03T01:54:46.588Z,67.57
2017-11-03T01:57:14.128Z,66.47
2017-11-03T01:59:41.857Z,72.03
2017-11-03T02:02:09.389Z,67.10
2017-11-03T02:04:37.548Z,76.87
2017-11-03T02:07:05.139Z,67.50
2017-11-03T02:09:32.826Z,74.77
2017-11-03T02:12:01.125Z,79.67
2017-11-03T02:14:28.790Z,85.33
2017-11-03T02:16:56.329Z,82.07
2017-11-03T02:19:23.928Z,82.53
2017-11-03T02:21:51.559Z,76.57
2017-11-03T02:24:19.131Z,81.80
2017-11-03T02:26:46.660Z,72.50
2017-11-03T02:29:14.961Z,82.73
2017-11-03T02:31:42.503Z,81.60
2017-11-03T02:34:10.804Z,84.63
2017-11-03T02:36:38.386Z,63.63
2017-11-03T02:39:05.913Z,73.17
2017-11-03T02:41:33.445Z,78.67
2017-11-03T02:44:01.036Z,83.50
2017-11-03T02:46:28.594Z,66.90
2017-11-03T02:48:56.146Z,71.70
2017-11-03T02:51:23.725Z,77.37
2017-11-03T02:53:51.285Z,78.27
2017-11-03T02:56:18.852Z,80.23
2017-11-03T02:58:46.418Z,112.40
2017-11-03T03:01:13.981Z,80.40
2017-11-03T03:03:41.699Z,78.60
2017-11-03T03:06:09.571Z,79.60
2017-11-03T03:08:37.118Z,80.33
2017-11-03T03:11:04.654Z,78.80
2017-11-03T03:13:32.288Z,76.27
2017-11-03T03:16:00.606Z,100.60
2017-11-03T03:18:28.168Z,123.53
2017-11-03T03:20:56.608Z,86.43
2017-11-03T03:23:24.916Z,68.43
2017-11-03T03:25:52.471Z,82.90
2017-11-03T03:28:20.797Z,82.90
2017-11-03T03:30:48.329Z,75.13
2017-11-03T03:33:15.875Z,73.57
2017-11-03T03:35:43.431Z,75.97
2017-11-03T03:38:11.028Z,62.57
2017-11-03T03:40:38.984Z,66.20
2017-11-03T03:43:06.585Z,66.23
2017-11-03T03:45:34.901Z,71.70
2017-11-03T03:48:02.416Z,65.13
2017-11-03T03:50:30.792Z,118.23
2017-11-03T03:52:59.102Z,142.83
2017-11-03T03:55:26.637Z,121.30
2017-11-03T03:57:59.955Z,78.83
2017-11-03T04:00:27.505Z,70.30
2017-11-03T04:02:55.113Z,64.63
2017-11-03T04:05:22.734Z,69.13
2017-11-03T04:07:50.262Z,68.93
2017-11-03T04:10:18.667Z,72.20
2017-11-03T04:12:46.227Z,87.13
2017-11-03T04:15:13.805Z,93.83
2017-11-03T04:17:41.349Z,71.97
2017-11-03T04:20:08.948Z,73.37
2017-11-03T04:22:36.501Z,70.20
2017-11-03T04:25:04.806Z,61.33
2017-11-03T04:27:33.132Z,69.70
2017-11-03T04:30:00.677Z,70.17
2017-11-03T04:32:28.240Z,65.93
2017-11-03T04:34:55.768Z,59.17
2017-11-03T04:37:23.297Z,64.27
2017-11-03T04:39:50.840Z,61.70
2017-11-03T04:42:18.416Z,62.87
2017-11-03T04:44:46.743Z,69.23
2017-11-03T04:47:14.299Z,60.63
2017-11-03T04:49:41.853Z,60.77
2017-11-03T04:52:09.407Z,68.93
2017-11-03T04:54:36.928Z,58.70
2017-11-03T04:57:04.490Z,63.83
2017-11-03T04:59:32.042Z,58.90
2017-11-03T05:02:00.370Z,63.43
2017-11-03T05:04:27.965Z,62.90
2017-11-03T05:06:56.324Z,57.70
2017-11-03T05:09:23.887Z,71.80
2017-11-03T05:11:51.527Z,62.73
2017-11-03T05:14:19.088Z,58.93
2017-11-03T05:16:46.658Z,78.87
2017-11-03T05:19:14.266Z,65.90
2017-11-03T05:21:42.574Z,71.87
2017-11-03T05:24:10.162Z,60.93
2017-11-03T05:26:37.713Z,63.63
2017-11-03T05:29:05.281Z,58.17
2017-11-03T05:31:32.902Z,63.50
2017-11-03T05:34:00.563Z,65.23
2017-11-03T05:36:28.078Z,64.80
2017-11-03T05:38:56.495Z,63.90
2017-11-03T05:41:24.056Z,67.87
2017-11-03T05:43:51.608Z,67.80
2017-11-03T05:46:19.137Z,62.40
2017-11-03T05:48:46.678Z,69.50
2017-11-03T05:51:14.237Z,65.43
2017-11-03T05:53:41.789Z,82.37
2017-11-03T05:56:09.380Z,68.73
2017-11-03T05:58:37.674Z,75.03
2017-11-03T06:01:05.548Z,76.77
2017-11-03T06:03:33.113Z,85.47
2017-11-03T06:06:00.689Z,62.67
2017-11-03T06:08:28.258Z,72.03
2017-11-03T06:10:55.960Z,65.20
2017-11-03T06:13:23.492Z,61.30
2017-11-03T06:15:51.048Z,63.33
2017-11-03T06:18:18.659Z,63.97
2017-11-03T06:20:46.191Z,59.93
2017-11-03T06:23:13.746Z,70.10
2017-11-03T06:25:42.094Z,76.33
2017-11-03T06:28:09.666Z,68.90
2017-11-03T06:30:38.133Z,63.33
2017-11-03T06:33:06.840Z,65.90
2017-11-03T06:35:35.247Z,64.00
2017-11-03T06:38:02.786Z,67.43
2017-11-03T06:40:30.324Z,65.07
2017-11-03T06:42:58.623Z,66.13
2017-11-03T06:45:26.123Z,65.87
2017-11-03T06:47:53.691Z,79.63
2017-11-03T06:50:21.240Z,72.13
2017-11-03T06:52:48.774Z,65.17
2017-11-03T06:55:16.522Z,80.20
2017-11-03T06:57:44.061Z,66.40
2017-11-03T07:00:12.472Z,62.03
2017-11-03T07:02:40.058Z,68.23
2017-11-03T07:05:07.589Z,68.53
2017-11-03T07:07:35.142Z,63.47
2017-11-03T07:10:02.711Z,67.87
2017-11-03T07:12:30.250Z,82.73
2017-11-03T07:14:57.846Z,68.00
2017-11-03T07:17:25.442Z,71.47
2017-11-03T07:19:53.722Z,75.83
2017-11-03T07:22:22.053Z,71.47
2017-11-03T07:24:49.608Z,72.47
2017-11-03T07:27:17.148Z,70.47
2017-11-03T07:29:44.672Z,66.97
2017-11-03T07:32:13.001Z,61.87
2017-11-03T07:34:40.533Z,64.73
2017-11-03T07:37:08.078Z,61.77
2017-11-03T07:39:35.684Z,57.33
2017-11-03T07:42:03.232Z,69.73
2017-11-03T07:44:30.899Z,59.03
2017-11-03T07:46:59.153Z,67.80
2017-11-03T07:49:26.738Z,69.07
2017-11-03T07:51:54.296Z,58.83
2017-11-03T07:54:21.862Z,64.13
2017-11-03T07:56:49.377Z,67.40
2017-11-03T07:59:16.935Z,76.37
2017-11-03T08:01:44.595Z,68.13
2017-11-03T08:04:12.171Z,60.70
2017-11-03T08:06:39.747Z,63.33
2017-11-03T08:09:07.371Z,54.60
2017-11-03T08:11:34.890Z,70.77
2017-11-03T08:14:03.267Z,68.03
2017-11-03T08:16:31.589Z,53.53
2017-11-03T08:18:59.146Z,52.53
2017-11-03T08:21:26.685Z,60.93
2017-11-03T08:23:54.291Z,57.93
2017-11-03T08:26:21.821Z,58.53
2017-11-03T08:28:49.354Z,58.70
2017-11-03T08:31:17.774Z,56.07
2017-11-03T08:33:45.396Z,54.10
2017-11-03T08:36:12.937Z,68.63
2017-11-03T08:38:41.293Z,56.47
2017-11-03T08:41:08.848Z,53.73
2017-11-03T08:43:36.404Z,55.00
2017-11-03T08:46:04.022Z,57.23
2017-11-03T08:48:31.565Z,52.30
2017-11-03T08:50:59.104Z,55.80
2017-11-03T08:53:27.456Z,65.07
2017-11-03T08:55:55.014Z,54.77
2017-11-03T08:58:22.569Z,56.40
2017-11-03T09:00:50.137Z,48.63
2017-11-03T09:03:17.685Z,58.63
2017-11-03T09:05:45.227Z,54.57
2017-11-03T09:08:12.939Z,46.97
2017-11-03T09:10:40.505Z,48.53
2017-11-03T09:13:08.811Z,47.37
2017-11-03T09:15:36.393Z,49.27
2017-11-03T09:18:03.957Z,55.63
2017-11-03T09:20:31.517Z,52.90
2017-11-03T09:23:00.676Z,60.17
2017-11-03T09:25:28.201Z,55.13
2017-11-03T09:27:57.416Z,56.73
2017-11-03T09:30:24.962Z,52.00
2017-11-03T09:32:52.512Z,51.10
2017-11-03T09:35:21.805Z,45.67
2017-11-03T09:37:50.121Z,53.00
2017-11-03T09:40:17.684Z,50.20
2017-11-03T09:42:45.344Z,43.70
2017-11-03T09:45:12.908Z,45.67
2017-11-03T09:47:40.473Z,47.23
2017-11-03T09:50:08.008Z,53.13
2017-11-03T09:52:35.589Z,46.87
2017-11-03T09:55:03.143Z,49.27
2017-11-03T09:57:30.717Z,52.73
2017-11-03T09:59:58.303Z,52.10
2017-11-03T10:02:26.449Z,41.20
2017-11-03T10:04:53.993Z,45.27
2017-11-03T10:07:21.593Z,42.97
2017-11-03T10:09:49.908Z,37.73
2017-11-03T10:12:17.442Z,42.33
2017-11-03T10:14:45.017Z,38.63
2017-11-03T10:17:12.554Z,46.43
2017-11-03T10:19:40.908Z,45.47
2017-11-03T10:22:08.595Z,48.53
2017-11-03T10:24:37.110Z,43.80
2017-11-03T10:27:04.682Z,187.00
2017-11-03T10:29:32.270Z,35.07
2017-11-03T10:32:00.721Z,41.17
2017-11-03T10:34:28.297Z,45.73
2017-11-03T10:36:55.846Z,41.63
2017-11-03T10:39:23.386Z,46.97
2017-11-03T10:41:50.990Z,38.77
2017-11-03T10:44:19.298Z,40.67
2017-11-03T10:46:46.823Z,39.47
2017-11-03T10:49:15.149Z,42.73
2017-11-03T10:51:42.678Z,40.67
2017-11-03T10:54:10.257Z,37.30
2017-11-03T10:56:37.819Z,41.13
2017-11-03T10:59:05.335Z,44.33
2017-11-03T11:01:33.945Z,40.60
2017-11-03T11:04:01.494Z,35.80
2017-11-03T11:06:29.034Z,43.93
2017-11-03T11:08:57.339Z,33.47
2017-11-03T11:11:24.929Z,42.73
2017-11-03T11:13:52.483Z,43.83
2017-11-03T11:16:20.017Z,40.20
2017-11-03T11:18:47.601Z,33.03
2017-11-03T11:21:15.144Z,41.73
2017-11-03T11:23:42.676Z,33.97
2017-11-03T11:26:10.353Z,35.37
2017-11-03T11:28:37.924Z,36.13
2017-11-03T11:31:05.515Z,34.90
2017-11-03T11:33:33.105Z,30.93
2017-11-03T11:36:01.411Z,27.90
2017-11-03T11:38:28.960Z,39.33
2017-11-03T11:40:56.551Z,30.20
2017-11-03T11:43:24.084Z,31.37
2017-11-03T11:45:51.633Z,29.17
2017-11-03T11:48:19.181Z,26.03
2017-11-03T11:50:46.730Z,28.57
2017-11-03T11:53:15.058Z,24.50
2017-11-03T11:55:42.613Z,23.93
2017-11-03T11:58:10.156Z,30.60
2017-11-03T12:00:37.707Z,37.17
2017-11-03T12:03:05.282Z,36.03
2017-11-03T12:05:32.841Z,22.10
2017-11-03T12:08:00.391Z,22.47
2017-11-03T12:10:27.962Z,22.30
2017-11-03T12:12:55.522Z,26.73
2017-11-03T12:15:23.095Z,27.53
2017-11-03T12:17:50.723Z,25.07
2017-11-03T12:20:18.235Z,24.37
2017-11-03T12:22:46.648Z,25.57
2017-11-03T12:25:14.254Z,20.60
2017-11-03T12:27:41.800Z,21.07
2017-11-03T12:30:09.338Z,26.80
2017-11-03T12:32:36.920Z,25.50
2017-11-03T12:35:04.459Z,22.93
2017-11-03T12:37:32.602Z,25.47
2017-11-03T12:40:00.735Z,20.43
2017-11-03T12:42:29.142Z,27.60
2017-11-03T12:44:57.414Z,22.33
2017-11-03T12:47:24.957Z,21.43
2017-11-03T12:49:53.275Z,24.53
2017-11-03T12:52:21.044Z,31.43
2017-11-03T12:54:49.193Z,27.60
2017-11-03T12:57:17.887Z,31.50
2017-11-03T12:59:45.467Z,35.33
2017-11-03T13:02:13.012Z,34.40
2017-11-03T13:04:40.571Z,31.83
2017-11-03T13:07:08.117Z,26.80
2017-11-03T13:09:35.703Z,25.73
2017-11-03T13:12:03.339Z,27.30
2017-11-03T13:14:30.883Z,28.23
2017-11-03T13:16:58.443Z,24.50
2017-11-03T13:19:26.122Z,28.37
2017-11-03T13:21:53.693Z,52.17
2017-11-03T13:24:21.394Z,32.90
2017-11-03T13:26:49.693Z,20.43
2017-11-03T13:29:17.231Z,27.03
2017-11-03T13:31:45.666Z,27.80
2017-11-03T13:34:13.215Z,31.57
2017-11-03T13:36:40.779Z,26.97
2017-11-03T13:39:08.341Z,27.40
2017-11-03T13:41:35.873Z,24.77
2017-11-03T13:44:03.434Z,27.20
2017-11-03T13:46:31.095Z,22.80
2017-11-03T13:48:58.653Z,31.83
2017-11-03T13:51:26.198Z,30.13
2017-11-03T13:53:53.782Z,24.73
2017-11-03T13:56:21.354Z,26.80
2017-11-03T13:58:48.916Z,30.97
2017-11-03T14:01:16.671Z,27.57
2017-11-03T14:03:44.231Z,26.87
2017-11-03T14:06:11.764Z,34.03
2017-11-03T14:08:39.431Z,26.60
2017-11-03T14:11:06.994Z,25.63
2017-11-03T14:13:34.704Z,32.37
2017-11-03T14:16:03.071Z,30.23
2017-11-03T14:18:31.425Z,24.67
2017-11-03T14:20:59.014Z,26.27
2017-11-03T14:23:27.293Z,25.63
2017-11-03T14:25:54.899Z,28.30
2017-11-03T14:28:22.486Z,30.30
2017-11-03T14:30:50.213Z,19.10
2017-11-03T14:33:17.751Z,18.33
2017-11-03T14:35:46.098Z,14.70
2017-11-03T14:38:13.668Z,15.17
2017-11-03T14:40:41.211Z,14.20
2017-11-03T14:43:08.757Z,20.77
2017-11-03T14:45:36.350Z,17.73
2017-11-03T14:48:04.649Z,30.03
2017-11-03T14:50:32.283Z,19.20
2017-11-03T14:53:00.665Z,17.13
2017-11-03T14:55:28.971Z,24.00
2017-11-03T14:57:56.545Z,23.93
2017-11-03T15:00:24.112Z,21.57
2017-11-03T15:02:51.666Z,22.67
2017-11-03T15:05:19.218Z,23.10
2017-11-03T15:07:46.815Z,24.50
2017-11-03T15:10:14.360Z,32.40
2017-11-03T15:12:41.905Z,44.60
2017-11-03T15:15:10.258Z,30.53
2017-11-03T15:17:37.811Z,33.93
2017-11-03T15:20:05.344Z,25.90
2017-11-03T15:22:33.729Z,25.70
2017-11-03T15:25:02.031Z,23.90
2017-11-03T15:27:29.572Z,19.03
2017-11-03T15:29:57.167Z,26.23
2017-11-03T15:32:24.778Z,28.33
2017-11-03T15:34:53.077Z,23.20
2017-11-03T15:37:21.483Z,22.17
2017-11-03T15:39:49.099Z,25.33
2017-11-03T15:42:16.649Z,27.30
2017-11-03T15:44:45.123Z,18.03
2017-11-03T15:47:12.674Z,17.77
2017-11-03T15:49:40.220Z,32.13
2017-11-03T15:52:07.916Z,13.10
2017-11-03T15:54:35.490Z,12.43
2017-11-03T15:57:03.031Z,18.10
2017-11-03T15:59:30.565Z,17.30
2017-11-03T16:01:58.884Z,15.33
2017-11-03T16:04:26.456Z,22.17
2017-11-03T16:06:54.058Z,30.13
2017-11-03T16:09:22.163Z,15.73
2017-11-03T16:11:49.720Z,20.10
2017-11-03T16:14:17.400Z,19.40
2017-11-03T16:16:44.954Z,28.37
2017-11-03T16:19:12.604Z,25.43
2017-11-03T16:21:40.592Z,14.63
2017-11-03T16:24:08.138Z,12.90
2017-11-03T16:26:35.727Z,14.13
2017-11-03T16:29:03.757Z,13.77
2017-11-03T16:31:31.415Z,11.57
2017-11-03T16:33:58.973Z,19.27
2017-11-03T16:36:26.562Z,11.87
2017-11-03T16:38:54.097Z,13.27
2017-11-03T16:41:22.673Z,15.83
2017-11-03T16:43:50.275Z,19.90
2017-11-03T16:46:17.882Z,13.50
2017-11-03T16:48:45.429Z,14.77
2017-11-03T16:51:12.995Z,14.27
2017-11-03T16:53:40.566Z,22.07
2017-11-03T16:56:08.208Z,18.23
2017-11-03T16:58:36.119Z,14.47
2017-11-03T17:01:03.691Z,16.83
2017-11-03T17:03:31.243Z,19.53
2017-11-03T17:05:58.765Z,17.53
2017-11-03T17:08:26.339Z,16.13
2017-11-03T17:10:53.931Z,15.90
2017-11-03T17:13:21.509Z,17.40
2017-11-03T17:15:49.834Z,27.80
2017-11-03T17:18:17.395Z,28.67
2017-11-03T17:20:44.978Z,19.17
2017-11-03T17:23:12.550Z,15.43
2017-11-03T17:25:40.077Z,21.67
2017-11-03T17:28:07.837Z,19.13
2017-11-03T17:30:35.477Z,22.00
2017-11-03T17:33:03.031Z,27.77
2017-11-03T17:35:30.592Z,19.67
2017-11-03T17:37:58.153Z,20.77
2017-11-03T17:40:25.810Z,24.33
2017-11-03T17:42:53.683Z,18.80
2017-11-03T17:45:21.248Z,19.20
2017-11-03T17:47:48.814Z,19.73
2017-11-03T17:50:16.553Z,21.70
2017-11-03T17:52:44.157Z,19.43
2017-11-03T17:55:11.672Z,28.40
2017-11-03T17:57:39.278Z,24.40
2017-11-03T18:00:06.884Z,19.70
2017-11-03T18:02:34.443Z,22.27
2017-11-03T18:05:01.997Z,26.40
2017-11-03T18:07:29.571Z,22.53
2017-11-03T18:09:57.210Z,29.53
2017-11-03T18:12:24.787Z,27.37
2017-11-03T18:14:52.391Z,29.23
2017-11-03T18:17:19.935Z,21.27
2017-11-03T18:19:47.510Z,26.90
2017-11-03T18:22:15.090Z,25.30
2017-11-03T18:24:43.375Z,24.10
2017-11-03T18:27:10.961Z,31.53
2017-11-03T18:29:38.519Z,21.07
2017-11-03T18:32:06.057Z,23.33
2017-11-03T18:34:33.614Z,22.47
2017-11-03T18:37:01.178Z,25.60
2017-11-03T18:39:29.569Z,26.20
2017-11-03T18:41:57.392Z,27.93
2017-11-03T18:44:25.709Z,28.93
2017-11-03T18:46:53.249Z,29.23
2017-11-03T18:49:20.918Z,30.97
2017-11-03T18:51:48.479Z,26.50
2017-11-03T18:54:16.050Z,32.87
2017-11-03T18:56:43.608Z,37.40
2017-11-03T18:59:11.156Z,56.63
2017-11-03T19:01:38.691Z,61.20
2017-11-03T19:04:06.471Z,74.83
2017-11-03T19:06:34.036Z,62.60
2017-11-03T19:09:01.691Z,63.33
2017-11-03T19:11:29.259Z,54.33
2017-11-03T19:13:56.913Z,55.80
2017-11-03T19:16:24.453Z,61.53
2017-11-03T19:18:52.046Z,56.27
2017-11-03T19:21:19.602Z,55.37
2017-11-03T19:23:47.159Z,68.63
2017-11-03T19:26:14.754Z,57.93
2017-11-03T19:28:42.313Z,47.00
2017-11-03T19:31:10.626Z,45.90
2017-11-03T19:33:38.206Z,50.20
2017-11-03T19:36:05.853Z,50.90
2017-11-03T19:38:33.393Z,42.70
2017-11-03T19:41:00.954Z,57.40
2017-11-03T19:43:28.552Z,58.67
2017-11-03T19:45:56.132Z,53.83
2017-11-03T19:48:23.710Z,43.40
2017-11-03T19:50:51.246Z,44.37
2017-11-03T19:53:18.811Z,41.67
2017-11-03T19:55:46.350Z,46.97
2017-11-03T19:58:14.026Z,38.13
2017-11-03T20:00:41.590Z,39.23
2017-11-03T20:03:09.158Z,70.00
2017-11-03T20:05:36.756Z,48.70
2017-11-03T20:08:04.331Z,47.27
2017-11-03T20:10:31.957Z,49.90
2017-11-03T20:13:00.261Z,49.50
2017-11-03T20:15:27.839Z,37.87
2017-11-03T20:17:55.409Z,35.93
2017-11-03T20:20:22.971Z,47.73
2017-11-03T20:22:50.534Z,39.80
2017-11-03T20:25:18.091Z,38.90
2017-11-03T20:27:45.656Z,43.47
2017-11-03T20:30:13.219Z,42.13
2017-11-03T20:32:41.547Z,59.53
2017-11-03T20:35:09.104Z,35.87
2017-11-03T20:37:36.685Z,39.90
2017-11-03T20:40:04.279Z,42.53
2017-11-03T20:42:32.565Z,39.70
2017-11-03T20:45:00.171Z,44.10
2017-11-03T20:47:27.712Z,38.77
2017-11-03T20:49:55.364Z,38.07
2017-11-03T20:52:22.945Z,38.37
2017-11-03T20:54:50.507Z,34.67
2017-11-03T20:57:18.111Z,36.57
2017-11-03T20:59:46.521Z,43.70
2017-11-03T21:02:14.083Z,39.53
2017-11-03T21:04:41.686Z,42.50
2017-11-03T21:07:09.758Z,36.60
2017-11-03T21:09:37.367Z,37.57
2017-11-03T21:12:05.044Z,38.53
2017-11-03T21:14:32.633Z,42.43
2017-11-03T21:17:00.185Z,39.23
2017-11-03T21:19:28.106Z,40.73
2017-11-03T21:21:55.703Z,48.23
2017-11-03T21:24:23.264Z,47.57
2017-11-03T21:26:50.927Z,33.53
2017-11-03T21:29:18.540Z,36.53
2017-11-03T21:31:46.299Z,40.80
2017-11-03T21:34:13.854Z,39.87
2017-11-03T21:36:41.426Z,39.07
2017-11-03T21:39:09.007Z,42.60
2017-11-03T21:41:36.678Z,37.70
2017-11-03T21:44:04.284Z,50.00
2017-11-03T21:46:31.882Z,48.27
2017-11-03T21:48:59.457Z,45.90
2017-11-03T21:51:27.099Z,46.97
2017-11-03T21:53:54.852Z,41.00
2017-11-03T21:56:22.500Z,43.57
2017-11-03T21:58:50.114Z,43.07
2017-11-03T22:01:17.730Z,49.67
2017-11-03T22:03:45.292Z,54.73
2017-11-03T22:06:12.844Z,51.40
2017-11-03T22:08:40.423Z,41.17
2017-11-03T22:11:07.986Z,48.93
2017-11-03T22:13:35.540Z,54.47
2017-11-03T22:16:03.101Z,47.23
2017-11-03T22:18:30.689Z,58.83
2017-11-03T22:20:59.052Z,44.93
2017-11-03T22:23:26.605Z,43.00
2017-11-03T22:25:54.154Z,47.63
2017-11-03T22:28:21.757Z,46.83
2017-11-03T22:30:50.088Z,41.07
2017-11-03T22:33:17.666Z,50.77
2017-11-03T22:35:45.230Z,51.03
2017-11-03T22:38:12.797Z,43.90
2017-11-03T22:40:41.129Z,48.20
2017-11-03T22:43:08.774Z,38.17
2017-11-03T22:45:36.353Z,44.70
2017-11-03T22:48:04.000Z,55.30
2017-11-03T22:50:31.534Z,40.47
2017-11-03T22:52:59.131Z,40.83
2017-11-03T22:55:26.664Z,41.83
2017-11-03T22:57:54.252Z,44.53
2017-11-03T23:00:21.801Z,42.90
2017-11-03T23:02:49.346Z,45.17
2017-11-03T23:05:16.895Z,47.17
2017-11-03T23:07:44.474Z,43.97
2017-11-03T23:10:12.138Z,58.67
2017-11-03T23:12:39.725Z,45.33
2017-11-03T23:15:07.289Z,44.07
2017-11-03T23:17:34.848Z,46.70
2017-11-03T23:20:03.190Z,45.13
2017-11-03T23:22:30.885Z,57.13
2017-11-03T23:24:58.496Z,43.00
2017-11-03T23:27:26.023Z,48.33
2017-11-03T23:29:53.608Z,46.07
2017-11-03T23:32:21.165Z,51.07
2017-11-03T23:34:48.744Z,47.13
2017-11-03T23:37:16.378Z,40.73
2017-11-03T23:39:43.918Z,45.40
2017-11-03T23:42:12.318Z,43.40
2017-11-03T23:44:39.865Z,38.50
2017-11-03T23:47:07.468Z,42.60
2017-11-03T23:49:35.024Z,58.80
2017-11-03T23:52:02.579Z,42.27
2017-11-03T23:54:30.129Z,45.27
2017-11-03T23:56:57.708Z,50.30
2017-11-03T23:59:25.286Z,47.40
